WIMM

Kualanamu International Airport

Airport
ICAO code
WIMM
IATA Code
KNO
Summary
ICAO Region
APAC
ICAO Territory
Location

Deli Serdang, Sumatra

Serving
Medan
Elevation
23 ft
Coordinates
3° 37' 52" N , 98° 52' 30" E
KCC
Metar
Observation
WIMM 010130Z 15006KT 9000 -RA SCT017 25/23 Q1011 NOSIG
Station
Medan / Polonia
Date/Time
2022-10-01 01:30:00
Wind direction
150°
Wind speed
06 kts
Lowest cloud amount
scattered clouds
Temperature
25°C
Dew point
23°C
Humidity
88%
QNH
1011 hPa
Weather condition
n/a

International Airport serving the city of Medan, Indonesia, about 26 km east of the city.

Climatology

Tropical Rainforest climate (Köppen climate classification Af)

SKYbrary Partners:

Safety knowledge contributed by: